sensor_id;sensor_type;location;lat;lon;timestamp;pressure;altitude;pressure_sealevel;temperature;humidity
45327;BME280;31062;49.678;24.560;2022-08-03T00:00:47;98444.03;;;17.54;69.44
45327;BME280;31062;49.678;24.560;2022-08-03T00:03:32;98274.56;;;16.50;69.58
45327;BME280;31062;49.678;24.560;2022-08-03T00:06:18;98433.03;;;17.59;69.24
45327;BME280;31062;49.678;24.560;2022-08-03T00:09:04;98438.63;;;17.59;69.85
45327;BME280;31062;49.678;24.560;2022-08-03T00:11:49;98378.75;;;17.13;69.50
45327;BME280;31062;49.678;24.560;2022-08-03T00:14:36;98434.66;;;17.36;69.25
45327;BME280;31062;49.678;24.560;2022-08-03T00:17:21;98280.66;;;16.10;69.56
45327;BME280;31062;49.678;24.560;2022-08-03T00:20:07;98439.31;;;16.81;70.17
45327;BME280;31062;49.678;24.560;2022-08-03T00:22:53;98314.22;;;15.73;71.13
45327;BME280;31062;49.678;24.560;2022-08-03T00:25:38;98446.47;;;16.47;71.72
45327;BME280;31062;49.678;24.560;2022-08-03T00:28:24;98428.47;;;16.27;72.27
45327;BME280;31062;49.678;24.560;2022-08-03T00:31:11;98451.13;;;16.31;72.56
45327;BME280;31062;49.678;24.560;2022-08-03T00:33:57;98405.69;;;15.96;72.62
45327;BME280;31062;49.678;24.560;2022-08-03T00:36:48;98412.50;;;15.92;72.71
45327;BME280;31062;49.678;24.560;2022-08-03T00:39:33;98400.59;;;15.80;72.95
45327;BME280;31062;49.678;24.560;2022-08-03T00:42:19;98429.00;;;16.12;72.72
45327;BME280;31062;49.678;24.560;2022-08-03T00:45:05;98448.31;;;16.31;72.45
45327;BME280;31062;49.678;24.560;2022-08-03T00:47:51;98312.13;;;15.50;71.93
45327;BME280;31062;49.678;24.560;2022-08-03T00:50:41;98454.97;;;16.49;71.89
45327;BME280;31062;49.678;24.560;2022-08-03T00:53:27;98453.00;;;16.63;71.35
45327;BME280;31062;49.678;24.560;2022-08-03T00:56:14;98411.59;;;16.25;70.92
45327;BME280;31062;49.678;24.560;2022-08-03T00:59:00;98480.00;;;16.70;70.49
45327;BME280;31062;49.678;24.560;2022-08-03T01:01:47;98374.28;;;16.20;69.96
45327;BME280;31062;49.678;24.560;2022-08-03T01:04:33;98481.94;;;16.80;69.88
45327;BME280;31062;49.678;24.560;2022-08-03T01:10:40;98370.16;;;16.10;69.33
45327;BME280;31062;49.678;24.560;2022-08-03T01:13:37;98465.13;;;16.80;69.30
45327;BME280;31062;49.678;24.560;2022-08-03T01:20:06;98460.06;;;16.64;69.50
45327;BME280;31062;49.678;24.560;2022-08-03T01:33:02;98458.88;;;16.44;69.62
45327;BME280;31062;49.678;24.560;2022-08-03T01:35:58;98418.69;;;16.03;69.76
45327;BME280;31062;49.678;24.560;2022-08-03T01:38:48;98289.78;;;15.27;69.76
45327;BME280;31062;49.678;24.560;2022-08-03T01:41:41;98331.09;;;15.63;69.78
45327;BME280;31062;49.678;24.560;2022-08-03T01:44:29;98328.44;;;15.65;69.65
45327;BME280;31062;49.678;24.560;2022-08-03T01:47:19;98456.09;;;16.44;69.50
45327;BME280;31062;49.678;24.560;2022-08-03T01:50:07;98440.13;;;16.47;69.63
45327;BME280;31062;49.678;24.560;2022-08-03T01:52:53;98333.03;;;15.72;69.62
45327;BME280;31062;49.678;24.560;2022-08-03T01:55:42;98403.22;;;16.25;69.66
45327;BME280;31062;49.678;24.560;2022-08-03T01:58:30;98386.47;;;16.02;69.92
45327;BME280;31062;49.678;24.560;2022-08-03T02:01:17;98445.03;;;16.34;69.99
45327;BME280;31062;49.678;24.560;2022-08-03T02:04:04;98328.88;;;15.50;70.13
45327;BME280;31062;49.678;24.560;2022-08-03T02:06:53;98328.66;;;15.46;70.03
45327;BME280;31062;49.678;24.560;2022-08-03T02:09:51;98405.78;;;15.98;70.05
45327;BME280;31062;49.678;24.560;2022-08-03T02:12:39;98382.34;;;15.79;69.97
45327;BME280;31062;49.678;24.560;2022-08-03T02:15:31;98413.44;;;15.97;69.99
45327;BME280;31062;49.678;24.560;2022-08-03T02:18:19;98425.63;;;15.90;70.11
45327;BME280;31062;49.678;24.560;2022-08-03T02:21:06;98453.31;;;15.86;70.46
45327;BME280;31062;49.678;24.560;2022-08-03T02:23:55;98280.78;;;14.70;70.43
45327;BME280;31062;49.678;24.560;2022-08-03T02:26:41;98445.31;;;15.80;70.12
45327;BME280;31062;49.678;24.560;2022-08-03T02:29:31;98282.22;;;14.71;70.17
45327;BME280;31062;49.678;24.560;2022-08-03T02:32:29;98461.63;;;15.84;70.08
45327;BME280;31062;49.678;24.560;2022-08-03T02:35:17;98404.59;;;15.54;69.98
45327;BME280;31062;49.678;24.560;2022-08-03T02:38:07;98284.03;;;14.78;70.03
45327;BME280;31062;49.678;24.560;2022-08-03T02:40:55;98283.28;;;14.66;70.16
45327;BME280;31062;49.678;24.560;2022-08-03T02:43:44;98304.78;;;14.75;70.10
45327;BME280;31062;49.678;24.560;2022-08-03T02:46:54;98283.41;;;14.56;70.59
45327;BME280;31062;49.678;24.560;2022-08-03T02:49:42;98364.06;;;15.08;70.63
45327;BME280;31062;49.678;24.560;2022-08-03T02:52:36;98275.91;;;14.59;70.21
45327;BME280;31062;49.678;24.560;2022-08-03T02:55:24;98438.63;;;15.62;70.59
45327;BME280;31062;49.678;24.560;2022-08-03T02:58:12;98440.41;;;15.46;70.30
45327;BME280;31062;49.678;24.560;2022-08-03T03:00:59;98212.94;;;13.57;70.78
45327;BME280;31062;49.678;24.560;2022-08-03T03:03:46;98151.50;;;12.91;71.10
45327;BME280;31062;49.678;24.560;2022-08-03T03:06:34;98285.34;;;13.57;72.07
45327;BME280;31062;49.678;24.560;2022-08-03T03:09:21;98388.16;;;14.05;72.75
45327;BME280;31062;49.678;24.560;2022-08-03T03:12:13;98466.38;;;14.28;73.22
45327;BME280;31062;49.678;24.560;2022-08-03T03:15:02;98453.00;;;14.27;73.90
45327;BME280;31062;49.678;24.560;2022-08-03T03:17:49;98259.47;;;12.74;74.07
45327;BME280;31062;49.678;24.560;2022-08-03T03:20:39;98446.53;;;14.03;74.62
45327;BME280;31062;49.678;24.560;2022-08-03T03:23:26;98466.00;;;13.82;75.16
45327;BME280;31062;49.678;24.560;2022-08-03T03:26:14;98418.59;;;13.61;76.10
45327;BME280;31062;49.678;24.560;2022-08-03T03:29:01;98465.38;;;13.93;76.39
45327;BME280;31062;49.678;24.560;2022-08-03T03:31:47;98473.59;;;13.91;76.80
45327;BME280;31062;49.678;24.560;2022-08-03T03:34:33;98476.66;;;13.95;76.96
45327;BME280;31062;49.678;24.560;2022-08-03T03:37:19;98373.13;;;13.27;77.24
45327;BME280;31062;49.678;24.560;2022-08-03T03:40:05;98472.63;;;14.08;77.04
45327;BME280;31062;49.678;24.560;2022-08-03T03:42:53;98463.53;;;14.07;77.75
45327;BME280;31062;49.678;24.560;2022-08-03T03:45:42;98479.44;;;14.26;77.65
45327;BME280;31062;49.678;24.560;2022-08-03T03:48:32;98475.88;;;14.35;77.85
45327;BME280;31062;49.678;24.560;2022-08-03T03:51:20;98372.97;;;13.66;77.83
45327;BME280;31062;49.678;24.560;2022-08-03T03:54:06;98468.66;;;14.42;77.75
45327;BME280;31062;49.678;24.560;2022-08-03T03:56:53;98432.03;;;14.05;78.07
45327;BME280;31062;49.678;24.560;2022-08-03T03:59:41;98477.41;;;14.69;78.08
45327;BME280;31062;49.678;24.560;2022-08-03T04:02:26;98490.00;;;14.91;77.80
45327;BME280;31062;49.678;24.560;2022-08-03T04:05:13;98488.13;;;15.05;77.82
45327;BME280;31062;49.678;24.560;2022-08-03T04:08:18;98462.63;;;14.99;77.61
45327;BME280;31062;49.678;24.560;2022-08-03T04:11:28;98331.44;;;14.12;77.62
45327;BME280;31062;49.678;24.560;2022-08-03T04:14:17;98348.97;;;14.24;77.65
45327;BME280;31062;49.678;24.560;2022-08-03T04:17:06;98464.09;;;15.00;78.07
45327;BME280;31062;49.678;24.560;2022-08-03T04:19:54;98499.25;;;15.27;78.27
45327;BME280;31062;49.678;24.560;2022-08-03T04:22:41;98496.72;;;15.31;78.62
45327;BME280;31062;49.678;24.560;2022-08-03T04:25:30;98517.84;;;15.34;78.89
45327;BME280;31062;49.678;24.560;2022-08-03T04:28:18;98519.56;;;15.39;78.99
45327;BME280;31062;49.678;24.560;2022-08-03T04:31:17;98518.75;;;15.48;79.39
45327;BME280;31062;49.678;24.560;2022-08-03T04:34:06;98478.22;;;15.26;79.32
45327;BME280;31062;49.678;24.560;2022-08-03T04:36:56;98381.44;;;14.62;80.17
45327;BME280;31062;49.678;24.560;2022-08-03T04:39:43;98314.06;;;14.23;80.20
45327;BME280;31062;49.678;24.560;2022-08-03T04:42:30;98484.84;;;15.42;80.02
45327;BME280;31062;49.678;24.560;2022-08-03T04:45:18;98458.13;;;15.39;79.80
45327;BME280;31062;49.678;24.560;2022-08-03T04:48:06;98519.31;;;15.91;79.97
45327;BME280;31062;49.678;24.560;2022-08-03T04:50:52;98527.75;;;16.03;80.55
45327;BME280;31062;49.678;24.560;2022-08-03T04:53:39;98498.06;;;15.98;79.74
45327;BME280;31062;49.678;24.560;2022-08-03T04:56:24;98541.59;;;16.36;78.96
45327;BME280;31062;49.678;24.560;2022-08-03T04:59:10;98429.16;;;15.90;78.44
45327;BME280;31062;49.678;24.560;2022-08-03T05:01:56;98527.53;;;16.94;78.40
45327;BME280;31062;49.678;24.560;2022-08-03T05:04:42;98535.53;;;17.36;77.44
45327;BME280;31062;49.678;24.560;2022-08-03T05:07:30;98520.28;;;17.65;75.13
45327;BME280;31062;49.678;24.560;2022-08-03T05:10:20;98514.38;;;18.11;74.25
45327;BME280;31062;49.678;24.560;2022-08-03T05:13:06;98501.88;;;18.42;73.18
45327;BME280;31062;49.678;24.560;2022-08-03T05:15:56;98535.47;;;18.94;71.15
45327;BME280;31062;49.678;24.560;2022-08-03T05:18:42;98534.31;;;19.29;71.02
45327;BME280;31062;49.678;24.560;2022-08-03T05:21:28;98530.34;;;19.63;68.70
45327;BME280;31062;49.678;24.560;2022-08-03T05:24:35;98477.91;;;19.54;67.13
45327;BME280;31062;49.678;24.560;2022-08-03T05:27:21;98503.31;;;19.87;66.41
45327;BME280;31062;49.678;24.560;2022-08-03T05:30:07;98528.03;;;20.36;66.92
45327;BME280;31062;49.678;24.560;2022-08-03T05:33:13;98536.97;;;20.64;66.01
45327;BME280;31062;49.678;24.560;2022-08-03T05:35:59;98521.06;;;20.70;64.99
45327;BME280;31062;49.678;24.560;2022-08-03T05:38:48;98541.69;;;20.93;63.22
45327;BME280;31062;49.678;24.560;2022-08-03T05:41:34;98509.56;;;20.82;63.67
45327;BME280;31062;49.678;24.560;2022-08-03T05:44:21;98529.31;;;21.00;64.03
45327;BME280;31062;49.678;24.560;2022-08-03T05:47:09;98512.97;;;20.96;63.95
45327;BME280;31062;49.678;24.560;2022-08-03T05:49:56;98527.81;;;21.14;63.20
45327;BME280;31062;49.678;24.560;2022-08-03T05:52:43;98524.19;;;21.12;63.58
45327;BME280;31062;49.678;24.560;2022-08-03T05:55:30;98516.53;;;21.14;62.24
45327;BME280;31062;49.678;24.560;2022-08-03T05:58:17;98429.16;;;20.61;62.79
45327;BME280;31062;49.678;24.560;2022-08-03T06:01:03;98520.13;;;21.33;62.59
45327;BME280;31062;49.678;24.560;2022-08-03T06:03:50;98540.50;;;21.31;62.19
45327;BME280;31062;49.678;24.560;2022-08-03T06:06:36;98395.00;;;20.53;61.21
45327;BME280;31062;49.678;24.560;2022-08-03T06:09:22;98497.63;;;21.35;62.38
45327;BME280;31062;49.678;24.560;2022-08-03T06:12:29;98518.03;;;21.71;61.99
45327;BME280;31062;49.678;24.560;2022-08-03T06:15:16;98547.66;;;22.07;61.58
45327;BME280;31062;49.678;24.560;2022-08-03T06:18:03;98548.97;;;22.24;60.33
45327;BME280;31062;49.678;24.560;2022-08-03T06:20:49;98502.38;;;22.03;60.56
45327;BME280;31062;49.678;24.560;2022-08-03T06:23:36;98453.81;;;21.89;60.36
45327;BME280;31062;49.678;24.560;2022-08-03T06:26:40;98554.19;;;22.71;58.56
45327;BME280;31062;49.678;24.560;2022-08-03T06:29:26;98554.63;;;22.83;58.28
45327;BME280;31062;49.678;24.560;2022-08-03T06:32:12;98559.31;;;22.96;59.07
45327;BME280;31062;49.678;24.560;2022-08-03T06:34:59;98423.81;;;22.17;59.53
45327;BME280;31062;49.678;24.560;2022-08-03T06:37:47;98365.81;;;21.94;59.22
45327;BME280;31062;49.678;24.560;2022-08-03T06:40:35;98420.56;;;22.47;57.36
45327;BME280;31062;49.678;24.560;2022-08-03T06:43:24;98400.53;;;22.38;56.82
45327;BME280;31062;49.678;24.560;2022-08-03T06:46:10;98552.72;;;23.53;56.90
45327;BME280;31062;49.678;24.560;2022-08-03T06:48:55;98519.66;;;23.38;56.50
45327;BME280;31062;49.678;24.560;2022-08-03T06:51:41;98557.19;;;23.60;55.66
45327;BME280;31062;49.678;24.560;2022-08-03T06:54:47;98548.16;;;23.66;55.88
45327;BME280;31062;49.678;24.560;2022-08-03T06:57:33;98327.59;;;22.11;54.94
45327;BME280;31062;49.678;24.560;2022-08-03T07:00:18;98531.53;;;23.54;54.30
45327;BME280;31062;49.678;24.560;2022-08-03T07:03:04;98446.13;;;22.92;55.96
45327;BME280;31062;49.678;24.560;2022-08-03T07:05:49;98563.22;;;23.72;54.78
45327;BME280;31062;49.678;24.560;2022-08-03T07:08:35;98491.50;;;23.42;55.57
45327;BME280;31062;49.678;24.560;2022-08-03T07:11:21;98423.97;;;22.85;53.29
45327;BME280;31062;49.678;24.560;2022-08-03T07:14:07;98558.00;;;23.86;54.42
45327;BME280;31062;49.678;24.560;2022-08-03T07:16:53;98538.53;;;23.75;54.06
45327;BME280;31062;49.678;24.560;2022-08-03T07:19:38;98425.16;;;22.99;54.66
45327;BME280;31062;49.678;24.560;2022-08-03T07:22:24;98549.63;;;23.90;55.61
45327;BME280;31062;49.678;24.560;2022-08-03T07:25:11;98559.56;;;23.91;53.58
45327;BME280;31062;49.678;24.560;2022-08-03T07:27:58;98430.81;;;22.99;54.88
45327;BME280;31062;49.678;24.560;2022-08-03T07:30:44;98563.94;;;23.96;54.52
45327;BME280;31062;49.678;24.560;2022-08-03T07:33:31;98539.63;;;23.87;53.30
45327;BME280;31062;49.678;24.560;2022-08-03T07:36:18;98409.44;;;22.94;53.85
45327;BME280;31062;49.678;24.560;2022-08-03T07:39:04;98425.53;;;23.11;53.95
45327;BME280;31062;49.678;24.560;2022-08-03T07:42:02;98562.75;;;24.04;54.15
45327;BME280;31062;49.678;24.560;2022-08-03T07:44:48;98466.50;;;23.56;53.27
45327;BME280;31062;49.678;24.560;2022-08-03T07:47:34;98544.66;;;24.15;53.21
45327;BME280;31062;49.678;24.560;2022-08-03T07:50:21;98569.44;;;24.38;52.71
45327;BME280;31062;49.678;24.560;2022-08-03T07:53:07;98546.50;;;24.28;52.75
45327;BME280;31062;49.678;24.560;2022-08-03T07:55:52;98465.72;;;23.77;52.87
45327;BME280;31062;49.678;24.560;2022-08-03T07:58:39;98509.75;;;24.06;52.45
45327;BME280;31062;49.678;24.560;2022-08-03T08:01:24;98564.34;;;24.58;50.98
45327;BME280;31062;49.678;24.560;2022-08-03T08:04:10;98568.38;;;24.51;51.46
45327;BME280;31062;49.678;24.560;2022-08-03T08:06:56;98569.72;;;24.48;52.84
45327;BME280;31062;49.678;24.560;2022-08-03T08:09:43;98569.72;;;24.48;53.36
45327;BME280;31062;49.678;24.560;2022-08-03T08:12:29;98553.38;;;24.47;52.86
45327;BME280;31062;49.678;24.560;2022-08-03T08:15:15;98460.28;;;23.85;53.07
45327;BME280;31062;49.678;24.560;2022-08-03T08:18:02;98578.13;;;24.70;53.45
45327;BME280;31062;49.678;24.560;2022-08-03T08:20:49;98567.09;;;24.82;52.64
45327;BME280;31062;49.678;24.560;2022-08-03T08:23:36;98565.91;;;24.89;53.21
45327;BME280;31062;49.678;24.560;2022-08-03T08:26:29;98560.88;;;24.88;52.75
45327;BME280;31062;49.678;24.560;2022-08-03T08:29:15;98570.94;;;24.93;51.54
45327;BME280;31062;49.678;24.560;2022-08-03T08:32:01;98537.69;;;24.69;50.45
45327;BME280;31062;49.678;24.560;2022-08-03T08:34:47;98559.38;;;24.85;50.24
45327;BME280;31062;49.678;24.560;2022-08-03T08:37:34;98570.84;;;24.89;51.41
45327;BME280;31062;49.678;24.560;2022-08-03T08:40:24;98564.53;;;24.92;51.39
45327;BME280;31062;49.678;24.560;2022-08-03T08:43:11;98572.88;;;24.86;49.84
45327;BME280;31062;49.678;24.560;2022-08-03T08:45:58;98567.59;;;24.74;49.41
45327;BME280;31062;49.678;24.560;2022-08-03T08:48:45;98555.94;;;24.62;50.13
45327;BME280;31062;49.678;24.560;2022-08-03T08:51:33;98570.28;;;24.68;50.17
45327;BME280;31062;49.678;24.560;2022-08-03T08:54:44;98556.16;;;24.70;51.62
45327;BME280;31062;49.678;24.560;2022-08-03T08:57:36;98564.19;;;24.80;51.87
45327;BME280;31062;49.678;24.560;2022-08-03T09:00:28;98452.66;;;24.16;53.78
45327;BME280;31062;49.678;24.560;2022-08-03T09:03:16;98565.59;;;25.05;52.72
45327;BME280;31062;49.678;24.560;2022-08-03T09:06:14;98502.53;;;24.78;52.45
45327;BME280;31062;49.678;24.560;2022-08-03T09:09:01;98546.41;;;25.33;49.14
45327;BME280;31062;49.678;24.560;2022-08-03T09:11:48;98549.59;;;25.17;49.33
45327;BME280;31062;49.678;24.560;2022-08-03T09:14:49;98567.25;;;25.14;50.29
45327;BME280;31062;49.678;24.560;2022-08-03T09:17:57;98561.31;;;25.04;49.13
45327;BME280;31062;49.678;24.560;2022-08-03T09:20:46;98558.28;;;24.96;47.81
45327;BME280;31062;49.678;24.560;2022-08-03T09:23:43;98550.34;;;24.90;48.19
45327;BME280;31062;49.678;24.560;2022-08-03T09:26:49;98548.03;;;24.85;49.00
45327;BME280;31062;49.678;24.560;2022-08-03T09:29:37;98514.75;;;24.59;51.13
45327;BME280;31062;49.678;24.560;2022-08-03T09:32:24;98401.19;;;23.97;49.32
45327;BME280;31062;49.678;24.560;2022-08-03T09:35:12;98552.75;;;25.02;49.30
45327;BME280;31062;49.678;24.560;2022-08-03T09:38:17;98548.56;;;25.05;50.00
45327;BME280;31062;49.678;24.560;2022-08-03T09:41:16;98529.50;;;25.07;50.83
45327;BME280;31062;49.678;24.560;2022-08-03T09:44:03;98514.44;;;25.01;50.30
45327;BME280;31062;49.678;24.560;2022-08-03T09:46:54;98554.41;;;25.41;48.97
45327;BME280;31062;49.678;24.560;2022-08-03T09:49:56;98447.22;;;24.77;48.95
45327;BME280;31062;49.678;24.560;2022-08-03T09:52:42;98520.28;;;25.37;49.62
45327;BME280;31062;49.678;24.560;2022-08-03T09:55:37;98448.75;;;24.83;48.73
45327;BME280;31062;49.678;24.560;2022-08-03T09:58:46;98541.41;;;25.59;50.26
45327;BME280;31062;49.678;24.560;2022-08-03T10:01:33;98545.72;;;25.63;48.37
45327;BME280;31062;49.678;24.560;2022-08-03T10:04:20;98545.69;;;25.60;47.96
45327;BME280;31062;49.678;24.560;2022-08-03T10:07:08;98533.34;;;25.50;49.83
45327;BME280;31062;49.678;24.560;2022-08-03T10:09:57;98555.66;;;25.62;49.40
45327;BME280;31062;49.678;24.560;2022-08-03T10:13:04;98544.38;;;25.66;49.01
45327;BME280;31062;49.678;24.560;2022-08-03T10:15:51;98511.34;;;25.50;48.11
45327;BME280;31062;49.678;24.560;2022-08-03T10:18:57;98518.69;;;25.59;46.41
45327;BME280;31062;49.678;24.560;2022-08-03T10:21:54;98535.78;;;25.62;48.18
45327;BME280;31062;49.678;24.560;2022-08-03T10:27:41;98541.59;;;25.68;47.60
45327;BME280;31062;49.678;24.560;2022-08-03T10:30:32;98541.75;;;25.76;47.22
45327;BME280;31062;49.678;24.560;2022-08-03T10:33:24;98511.72;;;25.65;46.47
45327;BME280;31062;49.678;24.560;2022-08-03T10:36:34;98534.75;;;25.79;47.21
45327;BME280;31062;49.678;24.560;2022-08-03T10:39:22;98533.28;;;25.78;47.52
45327;BME280;31062;49.678;24.560;2022-08-03T10:42:09;98531.91;;;25.79;48.06
45327;BME280;31062;49.678;24.560;2022-08-03T10:45:17;98535.00;;;25.91;45.83
45327;BME280;31062;49.678;24.560;2022-08-03T10:48:05;98401.72;;;25.01;45.50
45327;BME280;31062;49.678;24.560;2022-08-03T10:50:53;98399.56;;;25.00;46.27
45327;BME280;31062;49.678;24.560;2022-08-03T10:53:41;98520.69;;;25.85;46.63
45327;BME280;31062;49.678;24.560;2022-08-03T10:56:40;98525.31;;;26.04;46.54
45327;BME280;31062;49.678;24.560;2022-08-03T10:59:59;98516.53;;;25.90;45.79
45327;BME280;31062;49.678;24.560;2022-08-03T11:03:09;98525.38;;;26.06;44.61
45327;BME280;31062;49.678;24.560;2022-08-03T11:06:23;98532.38;;;26.01;43.81
45327;BME280;31062;49.678;24.560;2022-08-03T11:11:55;98496.50;;;25.84;45.08
45327;BME280;31062;49.678;24.560;2022-08-03T11:14:47;98496.69;;;25.92;46.22
45327;BME280;31062;49.678;24.560;2022-08-03T11:17:35;98524.22;;;26.19;46.96
45327;BME280;31062;49.678;24.560;2022-08-03T11:33:03;98447.84;;;25.66;44.80
45327;BME280;31062;49.678;24.560;2022-08-03T11:36:01;98471.47;;;26.08;44.86
45327;BME280;31062;49.678;24.560;2022-08-03T11:39:13;98506.72;;;26.31;44.57
45327;BME280;31062;49.678;24.560;2022-08-03T11:45:08;98457.06;;;26.00;44.50
45327;BME280;31062;49.678;24.560;2022-08-03T11:48:00;98488.41;;;26.40;43.52
45327;BME280;31062;49.678;24.560;2022-08-03T11:50:48;98487.75;;;26.41;45.05
45327;BME280;31062;49.678;24.560;2022-08-03T11:53:34;98417.06;;;25.88;44.47
45327;BME280;31062;49.678;24.560;2022-08-03T11:56:28;98421.16;;;25.79;44.44
45327;BME280;31062;49.678;24.560;2022-08-03T11:59:14;98501.84;;;26.35;43.22
45327;BME280;31062;49.678;24.560;2022-08-03T12:02:08;98501.81;;;26.33;43.60
45327;BME280;31062;49.678;24.560;2022-08-03T12:04:54;98497.44;;;26.28;43.09
45327;BME280;31062;49.678;24.560;2022-08-03T12:07:45;98496.00;;;26.27;43.84
45327;BME280;31062;49.678;24.560;2022-08-03T12:10:50;98498.16;;;26.29;43.72
45327;BME280;31062;49.678;24.560;2022-08-03T12:13:42;98505.28;;;26.30;43.55
45327;BME280;31062;49.678;24.560;2022-08-03T12:16:49;98469.47;;;26.15;43.53
45327;BME280;31062;49.678;24.560;2022-08-03T12:19:42;98438.47;;;25.93;44.11
45327;BME280;31062;49.678;24.560;2022-08-03T12:22:39;98503.28;;;26.36;43.26
45327;BME280;31062;49.678;24.560;2022-08-03T12:25:26;98440.16;;;26.06;43.33
45327;BME280;31062;49.678;24.560;2022-08-03T12:28:25;98485.44;;;26.32;42.97
45327;BME280;31062;49.678;24.560;2022-08-03T12:31:24;98482.63;;;26.34;41.84
45327;BME280;31062;49.678;24.560;2022-08-03T12:34:14;98470.13;;;26.13;41.39
45327;BME280;31062;49.678;24.560;2022-08-03T12:37:04;98186.69;;;24.26;42.25
45327;BME280;31062;49.678;24.560;2022-08-03T12:40:10;98450.91;;;26.12;41.89
45327;BME280;31062;49.678;24.560;2022-08-03T12:43:13;98474.91;;;26.38;43.73
45327;BME280;31062;49.678;24.560;2022-08-03T12:46:12;98477.09;;;26.42;40.37
45327;BME280;31062;49.678;24.560;2022-08-03T12:54:37;98323.81;;;25.38;43.25
45327;BME280;31062;49.678;24.560;2022-08-03T12:57:23;98381.47;;;25.83;41.91
45327;BME280;31062;49.678;24.560;2022-08-03T13:00:11;98480.81;;;26.51;39.12
45327;BME280;31062;49.678;24.560;2022-08-03T13:03:06;98446.34;;;26.30;41.21
45327;BME280;31062;49.678;24.560;2022-08-03T13:06:15;98472.19;;;26.47;40.91
45327;BME280;31062;49.678;24.560;2022-08-03T13:09:03;98410.31;;;26.05;40.34
45327;BME280;31062;49.678;24.560;2022-08-03T13:12:04;98463.59;;;26.42;41.50
45327;BME280;31062;49.678;24.560;2022-08-03T13:14:55;98455.13;;;26.45;41.88
45327;BME280;31062;49.678;24.560;2022-08-03T13:17:41;98414.81;;;26.18;41.17
45327;BME280;31062;49.678;24.560;2022-08-03T13:20:28;98320.06;;;25.64;41.75
45327;BME280;31062;49.678;24.560;2022-08-03T13:23:15;98421.66;;;26.41;41.01
45327;BME280;31062;49.678;24.560;2022-08-03T13:26:08;98441.13;;;26.57;42.57
45327;BME280;31062;49.678;24.560;2022-08-03T13:28:55;98307.25;;;25.63;41.31
45327;BME280;31062;49.678;24.560;2022-08-03T13:31:41;98420.81;;;26.34;40.59
45327;BME280;31062;49.678;24.560;2022-08-03T13:34:36;98394.81;;;26.12;41.56
45327;BME280;31062;49.678;24.560;2022-08-03T13:37:23;98453.53;;;26.35;41.69
45327;BME280;31062;49.678;24.560;2022-08-03T13:40:10;98453.94;;;26.22;42.43
45327;BME280;31062;49.678;24.560;2022-08-03T13:43:00;98453.81;;;26.14;42.41
45327;BME280;31062;49.678;24.560;2022-08-03T13:45:47;98432.78;;;25.91;42.79
45327;BME280;31062;49.678;24.560;2022-08-03T13:48:40;98450.72;;;26.01;43.12
45327;BME280;31062;49.678;24.560;2022-08-03T13:51:26;98445.66;;;25.96;43.30
45327;BME280;31062;49.678;24.560;2022-08-03T13:54:12;98461.31;;;25.99;42.83
45327;BME280;31062;49.678;24.560;2022-08-03T13:56:59;98349.75;;;25.25;43.15
45327;BME280;31062;49.678;24.560;2022-08-03T14:00:05;98454.03;;;25.90;43.97
45327;BME280;31062;49.678;24.560;2022-08-03T14:02:52;98371.75;;;25.24;43.73
45327;BME280;31062;49.678;24.560;2022-08-03T14:05:47;98435.00;;;25.63;44.19
45327;BME280;31062;49.678;24.560;2022-08-03T14:08:34;98441.00;;;25.77;44.94
45327;BME280;31062;49.678;24.560;2022-08-03T14:11:20;98445.41;;;25.84;45.00
45327;BME280;31062;49.678;24.560;2022-08-03T14:14:07;98416.69;;;25.68;43.33
45327;BME280;31062;49.678;24.560;2022-08-03T14:16:54;98300.34;;;25.02;42.78
45327;BME280;31062;49.678;24.560;2022-08-03T14:19:41;98450.78;;;26.04;43.16
45327;BME280;31062;49.678;24.560;2022-08-03T14:22:40;98438.84;;;26.11;43.06
45327;BME280;31062;49.678;24.560;2022-08-03T14:25:26;98434.59;;;26.12;41.82
45327;BME280;31062;49.678;24.560;2022-08-03T14:28:12;98423.78;;;26.05;41.60
45327;BME280;31062;49.678;24.560;2022-08-03T14:30:58;98392.34;;;25.94;43.05
45327;BME280;31062;49.678;24.560;2022-08-03T14:33:44;98437.63;;;26.22;42.68
45327;BME280;31062;49.678;24.560;2022-08-03T14:36:31;98335.38;;;25.50;43.22
45327;BME280;31062;49.678;24.560;2022-08-03T14:39:17;98417.63;;;26.16;43.31
45327;BME280;31062;49.678;24.560;2022-08-03T14:42:03;98340.09;;;25.72;42.47
45327;BME280;31062;49.678;24.560;2022-08-03T14:44:49;98358.78;;;25.83;42.53
45327;BME280;31062;49.678;24.560;2022-08-03T14:47:35;98419.19;;;26.23;42.45
45327;BME280;31062;49.678;24.560;2022-08-03T14:50:42;98421.94;;;26.19;42.65
45327;BME280;31062;49.678;24.560;2022-08-03T14:53:36;98426.44;;;26.30;42.36
45327;BME280;31062;49.678;24.560;2022-08-03T14:56:22;98423.66;;;26.32;42.37
45327;BME280;31062;49.678;24.560;2022-08-03T14:59:08;98426.50;;;26.34;42.52
45327;BME280;31062;49.678;24.560;2022-08-03T15:01:53;98433.63;;;26.35;41.80
45327;BME280;31062;49.678;24.560;2022-08-03T15:04:51;98430.06;;;26.35;41.41
45327;BME280;31062;49.678;24.560;2022-08-03T15:07:37;98361.69;;;25.87;41.66
45327;BME280;31062;49.678;24.560;2022-08-03T15:10:23;98289.72;;;25.36;41.91
45327;BME280;31062;49.678;24.560;2022-08-03T15:13:28;98374.63;;;25.96;41.15
45327;BME280;31062;49.678;24.560;2022-08-03T15:16:14;98368.16;;;25.91;41.79
45327;BME280;31062;49.678;24.560;2022-08-03T15:19:00;98427.81;;;26.27;41.90
45327;BME280;31062;49.678;24.560;2022-08-03T15:21:48;98419.25;;;26.25;42.45
45327;BME280;31062;49.678;24.560;2022-08-03T15:24:35;98390.41;;;26.05;41.23
45327;BME280;31062;49.678;24.560;2022-08-03T15:27:21;98423.38;;;26.20;42.87
45327;BME280;31062;49.678;24.560;2022-08-03T15:30:08;98420.47;;;26.16;43.15
45327;BME280;31062;49.678;24.560;2022-08-03T15:32:54;98360.75;;;25.76;43.19